createdAt,value
2022-10-23T00:04:15.407Z,14.79
2022-10-23T00:09:16.398Z,14.97
2022-10-23T00:14:13.894Z,14.97
2022-10-23T00:19:10.996Z,14.96
2022-10-23T00:29:08.051Z,14.60
2022-10-23T00:34:07.597Z,14.95
2022-10-23T00:39:05.499Z,14.68
2022-10-23T00:44:08.083Z,14.88
2022-10-23T00:49:06.063Z,14.71
2022-10-23T00:54:23.972Z,14.80
2022-10-23T00:59:23.145Z,14.62
2022-10-23T01:04:22.011Z,14.49
2022-10-23T01:09:26.201Z,14.91
2022-10-23T01:14:32.057Z,15.19
2022-10-23T01:19:43.111Z,14.89
2022-10-23T01:24:51.160Z,15.26
2022-10-23T01:29:59.218Z,14.64
2022-10-23T01:35:07.774Z,14.80
2022-10-23T01:40:11.605Z,14.76
2022-10-23T01:45:13.729Z,15.49
2022-10-23T01:50:15.536Z,15.48
2022-10-23T01:55:16.513Z,15.20
2022-10-23T02:00:17.749Z,15.30
2022-10-23T02:05:26.593Z,15.40
2022-10-23T02:10:32.454Z,15.34
2022-10-23T02:15:36.036Z,15.49
2022-10-23T02:20:38.387Z,15.88
2022-10-23T02:25:41.336Z,15.42
2022-10-23T02:30:44.220Z,15.69
2022-10-23T02:35:43.337Z,16.19
2022-10-23T02:40:57.319Z,16.31
2022-10-23T02:46:08.543Z,16.38
2022-10-23T02:51:12.345Z,16.12
2022-10-23T02:56:18.451Z,15.90
2022-10-23T03:01:20.163Z,16.40
2022-10-23T03:06:18.923Z,15.92
2022-10-23T03:11:16.106Z,16.41
2022-10-23T03:16:13.187Z,16.24
2022-10-23T03:21:10.986Z,16.67
2022-10-23T03:26:08.628Z,16.51
2022-10-23T03:31:10.918Z,16.75
2022-10-23T03:36:10.510Z,16.56
2022-10-23T03:41:07.602Z,16.56
2022-10-23T03:46:08.643Z,16.43
2022-10-23T03:51:06.715Z,16.43
2022-10-23T03:56:05.211Z,16.86
2022-10-23T04:01:03.681Z,16.51
2022-10-23T04:06:00.758Z,16.65
2022-10-23T04:11:00.026Z,16.62
2022-10-23T04:16:05.833Z,16.40
2022-10-23T04:21:03.685Z,15.95
2022-10-23T04:26:00.837Z,16.07
2022-10-23T04:30:57.899Z,16.00
2022-10-23T04:35:58.593Z,15.84
2022-10-23T04:40:55.747Z,16.49
2022-10-23T04:45:53.672Z,16.03
2022-10-23T04:50:59.767Z,15.86
2022-10-23T04:56:17.898Z,16.30
2022-10-23T05:01:28.619Z,16.43
2022-10-23T05:06:27.289Z,15.77
2022-10-23T05:11:56.002Z,16.46
2022-10-23T05:16:59.455Z,15.93
2022-10-23T05:21:57.914Z,16.16
2022-10-23T05:27:06.613Z,16.61
2022-10-23T05:32:12.533Z,16.65
2022-10-23T05:37:15.814Z,16.45
2022-10-23T05:42:16.169Z,16.68
2022-10-23T05:47:16.626Z,16.20
2022-10-23T05:52:48.496Z,16.64
2022-10-23T05:58:43.210Z,16.75
2022-10-23T06:03:58.881Z,16.37
2022-10-23T06:09:18.461Z,17.02
2022-10-23T06:14:20.344Z,17.09
2022-10-23T06:19:18.843Z,16.54
2022-10-23T06:24:38.929Z,16.58
2022-10-23T06:29:41.584Z,17.18
2022-10-23T06:34:49.907Z,17.27
2022-10-23T06:39:47.575Z,17.27
2022-10-23T06:44:47.823Z,17.62
2022-10-23T06:49:53.524Z,17.45
2022-10-23T06:55:04.272Z,17.65
2022-10-23T07:00:06.574Z,17.56
2022-10-23T07:05:32.231Z,17.36
2022-10-23T07:11:16.596Z,17.98
2022-10-23T07:16:29.376Z,17.96
2022-10-23T07:21:27.025Z,18.10
2022-10-23T07:26:29.945Z,18.51
2022-10-23T07:31:30.384Z,17.96
2022-10-23T07:36:45.586Z,18.82
2022-10-23T07:41:43.081Z,18.93
2022-10-23T07:46:41.220Z,18.91
2022-10-23T07:52:13.003Z,19.21
2022-10-23T07:57:28.769Z,19.34
2022-10-23T08:02:38.136Z,18.93
2022-10-23T08:07:48.330Z,19.49
2022-10-23T08:12:47.130Z,19.71
2022-10-23T08:17:48.503Z,19.71
2022-10-23T08:22:57.848Z,19.85
2022-10-23T08:28:05.536Z,20.14
2022-10-23T08:33:14.688Z,20.30
2022-10-23T08:38:23.428Z,20.48
2022-10-23T08:43:46.530Z,20.13
2022-10-23T08:49:34.300Z,20.72
2022-10-23T08:54:43.428Z,20.55
2022-10-23T08:59:46.131Z,21.12
2022-10-23T09:04:47.403Z,21.25
2022-10-23T09:15:40.041Z,21.54
2022-10-23T09:20:40.433Z,21.42
2022-10-23T09:25:50.441Z,21.75
2022-10-23T09:31:07.901Z,21.73
2022-10-23T09:36:22.967Z,21.82
2022-10-23T09:41:27.443Z,21.99
2022-10-23T09:46:24.454Z,21.76
2022-10-23T09:51:22.529Z,21.51
2022-10-23T10:01:53.350Z,21.80
2022-10-23T10:07:20.057Z,22.53
2022-10-23T10:12:45.592Z,23.32
2022-10-23T10:17:57.168Z,23.85
2022-10-23T10:23:01.219Z,25.04
2022-10-23T10:28:15.908Z,25.50
2022-10-23T10:33:16.751Z,25.78
2022-10-23T10:38:38.981Z,25.76
2022-10-23T10:43:43.928Z,25.76
2022-10-23T10:48:49.640Z,26.09
2022-10-23T10:54:18.172Z,25.48
2022-10-23T10:59:31.494Z,26.03
2022-10-23T11:04:39.044Z,25.68
2022-10-23T11:09:39.182Z,25.83
2022-10-23T11:14:36.155Z,25.98
2022-10-23T11:19:42.215Z,25.73
2022-10-23T11:25:07.476Z,25.81
2022-10-23T11:30:18.694Z,25.31
2022-10-23T11:35:30.148Z,25.39
2022-10-23T11:40:29.020Z,25.73
2022-10-23T11:45:42.102Z,25.55
2022-10-23T11:50:51.226Z,25.50
2022-10-23T11:56:30.658Z,25.47
2022-10-23T12:01:36.961Z,25.44
2022-10-23T12:06:40.474Z,25.64
2022-10-23T12:11:52.345Z,25.39
2022-10-23T12:16:49.269Z,25.26
2022-10-23T12:22:15.386Z,25.75
2022-10-23T12:27:35.650Z,25.44
2022-10-23T12:33:06.566Z,25.53
2022-10-23T12:38:13.838Z,25.76
2022-10-23T12:43:26.018Z,25.19
2022-10-23T12:48:24.561Z,25.48
2022-10-23T12:53:24.063Z,25.45
2022-10-23T12:58:24.814Z,25.06
2022-10-23T13:03:36.845Z,25.00
2022-10-23T13:08:42.053Z,24.85
2022-10-23T13:13:59.221Z,25.08
2022-10-23T13:19:21.757Z,24.46
2022-10-23T13:24:23.060Z,24.40
2022-10-23T13:29:23.174Z,24.05
2022-10-23T13:34:27.615Z,24.45
2022-10-23T13:39:30.834Z,23.85
2022-10-23T13:44:28.603Z,23.83
2022-10-23T13:49:30.102Z,24.00
2022-10-23T13:54:38.262Z,23.56
2022-10-23T13:59:37.547Z,23.33
2022-10-23T14:04:46.907Z,23.48
2022-10-23T14:09:45.318Z,23.11
2022-10-23T14:14:45.567Z,22.86
2022-10-23T14:19:42.665Z,23.15
2022-10-23T14:24:39.754Z,23.01
2022-10-23T14:29:36.719Z,22.59
2022-10-23T14:34:35.981Z,22.53
2022-10-23T14:39:33.067Z,22.86
2022-10-23T14:44:30.069Z,22.81
2022-10-23T14:49:35.132Z,22.53
2022-10-23T14:54:38.104Z,22.39
2022-10-23T14:59:35.602Z,21.81
2022-10-23T15:04:47.466Z,22.18
2022-10-23T15:10:12.164Z,21.30
2022-10-23T15:15:12.642Z,21.66
2022-10-23T15:20:22.165Z,21.19
2022-10-23T15:25:19.831Z,21.05
2022-10-23T15:30:20.166Z,20.95
2022-10-23T15:35:44.179Z,21.26
2022-10-23T15:40:54.183Z,20.98
2022-10-23T15:45:51.489Z,20.45
2022-10-23T15:50:48.679Z,20.72
2022-10-23T15:55:51.880Z,20.81
2022-10-23T16:00:51.602Z,19.94
2022-10-23T16:05:51.582Z,20.62
2022-10-23T16:10:49.526Z,20.53
2022-10-23T16:16:07.246Z,19.78
2022-10-23T16:21:38.844Z,19.67
2022-10-23T16:26:38.517Z,19.94
2022-10-23T16:31:38.621Z,19.48
2022-10-23T16:42:47.467Z,19.37
2022-10-23T16:48:02.474Z,19.75
2022-10-23T16:59:19.116Z,19.60
2022-10-23T17:04:21.718Z,19.35
2022-10-23T17:09:24.048Z,19.47
2022-10-23T17:14:28.593Z,19.19
2022-10-23T17:19:47.073Z,19.58
2022-10-23T17:24:47.416Z,18.99
2022-10-23T17:29:54.805Z,19.46
2022-10-23T17:35:09.228Z,19.41
2022-10-23T17:40:07.923Z,19.35
2022-10-23T17:45:09.548Z,19.31
2022-10-23T17:50:18.693Z,19.08
2022-10-23T17:55:18.486Z,19.17
2022-10-23T18:00:18.295Z,18.92
2022-10-23T18:05:15.564Z,18.93
2022-10-23T18:10:13.102Z,18.89
2022-10-23T18:15:13.297Z,18.85
2022-10-23T18:20:15.204Z,18.99
2022-10-23T18:25:13.774Z,18.38
2022-10-23T18:30:14.594Z,18.30
2022-10-23T18:35:34.294Z,18.57
2022-10-23T18:40:31.767Z,18.45
2022-10-23T18:45:29.027Z,18.20
2022-10-23T18:50:30.286Z,18.42
2022-10-23T19:00:41.482Z,18.44
2022-10-23T19:05:46.163Z,17.91
2022-10-23T19:10:45.143Z,18.26
2022-10-23T19:15:47.434Z,17.79
2022-10-23T19:20:47.974Z,17.59
2022-10-23T19:25:51.018Z,17.48
2022-10-23T19:30:58.474Z,17.68
2022-10-23T19:36:05.381Z,17.11
2022-10-23T19:41:12.063Z,17.04
2022-10-23T19:46:14.476Z,16.88
2022-10-23T19:51:13.194Z,17.19
2022-10-23T19:56:12.506Z,17.23
2022-10-23T20:01:15.763Z,16.83
2022-10-23T20:06:15.168Z,16.33
2022-10-23T20:11:20.449Z,16.50
2022-10-23T20:16:21.437Z,16.66
2022-10-23T20:21:21.102Z,16.40
2022-10-23T20:26:21.415Z,16.56
2022-10-23T20:31:19.896Z,16.22
2022-10-23T20:36:26.652Z,16.56
2022-10-23T20:41:26.479Z,15.95
2022-10-23T20:46:23.773Z,16.73
2022-10-23T20:51:22.896Z,16.29
2022-10-23T20:56:23.405Z,16.00
2022-10-23T21:01:20.391Z,16.02
2022-10-23T21:06:18.509Z,16.17
2022-10-23T21:11:23.847Z,16.40
2022-10-23T21:16:26.103Z,16.18
2022-10-23T21:21:26.561Z,16.02
2022-10-23T21:26:24.601Z,16.05
2022-10-23T21:31:25.375Z,16.24
2022-10-23T21:36:25.592Z,15.91
2022-10-23T21:41:33.405Z,15.36
2022-10-23T21:46:32.530Z,15.92
2022-10-23T21:51:33.417Z,15.83
2022-10-23T21:56:35.350Z,15.57
2022-10-23T22:01:33.445Z,15.71
2022-10-23T22:06:40.668Z,15.77
2022-10-23T22:11:39.137Z,15.50
2022-10-23T22:16:44.460Z,14.93
2022-10-23T22:21:41.885Z,15.25
2022-10-23T22:26:41.131Z,15.43
2022-10-23T22:31:39.458Z,15.18
2022-10-23T22:36:37.150Z,15.10
2022-10-23T22:41:35.038Z,15.41
2022-10-23T22:46:34.850Z,14.76
2022-10-23T22:51:31.754Z,15.37
2022-10-23T22:56:32.402Z,14.75
2022-10-23T23:01:33.822Z,14.98
2022-10-23T23:06:33.140Z,15.01
2022-10-23T23:11:37.100Z,14.34
2022-10-23T23:16:42.766Z,14.89
2022-10-23T23:21:40.506Z,14.92
2022-10-23T23:26:37.309Z,14.94
2022-10-23T23:31:34.223Z,14.92
2022-10-23T23:36:31.950Z,14.87
2022-10-23T23:41:45.101Z,14.58
2022-10-23T23:46:53.619Z,14.76
2022-10-23T23:51:50.745Z,14.35
2022-10-23T23:56:49.837Z,14.62
